createdAt,value
2018-06-22T00:01:46.839Z,2.23
2018-06-22T00:04:16.249Z,1.93
2018-06-22T00:06:46.032Z,2.50
2018-06-22T00:09:15.543Z,2.50
2018-06-22T00:11:44.560Z,2.27
2018-06-22T00:14:16.730Z,2.13
2018-06-22T00:16:48.939Z,2.80
2018-06-22T00:19:19.183Z,2.40
2018-06-22T00:21:48.171Z,2.70
2018-06-22T00:24:17.840Z,2.57
2018-06-22T00:26:50.427Z,2.27
2018-06-22T00:29:21.690Z,2.50
2018-06-22T00:31:53.174Z,3.03
2018-06-22T00:34:27.925Z,2.43
2018-06-22T00:36:59.364Z,2.53
2018-06-22T00:39:28.355Z,2.57
2018-06-22T00:41:59.678Z,3.20
2018-06-22T00:44:28.643Z,2.60
2018-06-22T00:46:59.873Z,3.40
2018-06-22T00:49:29.953Z,2.77
2018-06-22T00:51:58.925Z,1.97
2018-06-22T00:54:30.571Z,2.40
2018-06-22T00:57:01.664Z,3.10
2018-06-22T00:59:31.439Z,2.30
2018-06-22T01:02:04.484Z,1.97
2018-06-22T01:04:33.969Z,2.53
2018-06-22T01:07:05.680Z,2.30
2018-06-22T01:09:36.501Z,2.33
2018-06-22T01:12:07.451Z,2.37
2018-06-22T01:14:38.145Z,2.83
2018-06-22T01:17:08.928Z,3.90
2018-06-22T01:19:38.452Z,2.10
2018-06-22T01:22:07.879Z,2.50
2018-06-22T01:24:38.260Z,2.27
2018-06-22T01:27:07.760Z,2.53
2018-06-22T01:29:37.398Z,2.37
2018-06-22T01:32:09.158Z,2.57
2018-06-22T01:34:38.096Z,2.47
2018-06-22T01:37:11.050Z,2.87
2018-06-22T01:39:40.022Z,2.40
2018-06-22T01:42:11.371Z,2.50
2018-06-22T01:44:40.782Z,2.40
2018-06-22T01:47:11.959Z,2.33
2018-06-22T01:49:40.956Z,1.97
2018-06-22T01:52:11.774Z,2.20
2018-06-22T01:54:42.224Z,2.00
2018-06-22T01:57:14.940Z,2.27
2018-06-22T01:59:44.244Z,2.20
2018-06-22T02:02:14.507Z,2.80
2018-06-22T02:04:44.688Z,2.07
2018-06-22T02:07:15.431Z,2.47
2018-06-22T02:09:45.416Z,2.00
2018-06-22T02:12:16.923Z,2.40
2018-06-22T02:14:49.052Z,2.40
2018-06-22T02:17:20.182Z,2.00
2018-06-22T02:19:49.555Z,2.07
2018-06-22T02:22:20.475Z,2.63
2018-06-22T02:24:51.013Z,2.00
2018-06-22T02:27:20.395Z,2.17
2018-06-22T02:29:53.080Z,1.70
2018-06-22T02:32:23.291Z,2.10
2018-06-22T02:34:52.247Z,1.90
2018-06-22T02:37:24.944Z,2.43
2018-06-22T02:39:54.642Z,2.30
2018-06-22T02:42:25.268Z,1.80
2018-06-22T02:44:59.313Z,1.90
2018-06-22T02:47:29.017Z,1.90
2018-06-22T02:49:59.254Z,1.83
2018-06-22T02:52:31.322Z,2.70
2018-06-22T02:55:00.271Z,1.70
2018-06-22T02:57:30.403Z,1.73
2018-06-22T03:00:01.254Z,2.40
2018-06-22T03:02:30.213Z,1.90
2018-06-22T03:05:00.129Z,2.07
2018-06-22T03:07:29.093Z,2.00
2018-06-22T03:09:58.588Z,2.13
2018-06-22T03:12:29.502Z,2.80
2018-06-22T03:14:59.115Z,2.20
2018-06-22T03:17:28.087Z,2.13
2018-06-22T03:20:00.416Z,2.43
2018-06-22T03:22:31.021Z,2.20
2018-06-22T03:25:01.347Z,2.30
2018-06-22T03:27:30.338Z,1.90
2018-06-22T03:30:01.499Z,2.57
2018-06-22T03:32:30.303Z,2.47
2018-06-22T03:35:01.931Z,2.30
2018-06-22T03:37:32.996Z,2.63
2018-06-22T03:40:08.842Z,3.20
2018-06-22T03:42:39.556Z,2.40
2018-06-22T03:45:09.369Z,2.53
2018-06-22T03:47:40.122Z,2.50
2018-06-22T03:50:13.735Z,2.70
2018-06-22T03:52:45.340Z,2.00
2018-06-22T03:55:15.527Z,2.73
2018-06-22T03:57:46.573Z,2.17
2018-06-22T04:00:16.833Z,1.73
2018-06-22T04:02:50.558Z,2.30
2018-06-22T04:05:21.902Z,2.30
2018-06-22T04:07:54.869Z,2.67
2018-06-22T04:10:24.856Z,2.57
2018-06-22T04:12:54.479Z,2.90
2018-06-22T04:15:23.472Z,2.50
2018-06-22T04:17:58.028Z,2.53
2018-06-22T04:20:28.526Z,2.77
2018-06-22T04:22:57.477Z,2.90
2018-06-22T04:25:26.485Z,2.97
2018-06-22T04:27:55.502Z,2.53
2018-06-22T04:30:24.513Z,2.50
2018-06-22T04:32:53.497Z,3.10
2018-06-22T04:35:22.500Z,2.70
2018-06-22T04:37:51.458Z,2.90
2018-06-22T04:40:20.475Z,2.77
2018-06-22T04:42:49.445Z,2.97
2018-06-22T04:45:22.166Z,2.80
2018-06-22T04:47:51.142Z,2.53
2018-06-22T04:50:20.135Z,2.80
2018-06-22T04:52:49.102Z,3.97
2018-06-22T04:55:18.238Z,2.57
2018-06-22T04:57:48.069Z,2.23
2018-06-22T05:00:17.549Z,2.33
2018-06-22T05:02:46.538Z,2.13
2018-06-22T05:05:15.525Z,3.00
2018-06-22T05:07:44.482Z,2.77
2018-06-22T05:10:13.520Z,2.57
2018-06-22T05:12:43.475Z,2.50
2018-06-22T05:15:12.470Z,2.50
2018-06-22T05:17:41.443Z,2.50
2018-06-22T05:20:12.061Z,2.70
2018-06-22T05:22:42.021Z,2.37
2018-06-22T05:25:18.229Z,2.97
2018-06-22T05:27:47.185Z,2.17
2018-06-22T05:30:16.859Z,1.97
2018-06-22T05:32:45.808Z,1.77
2018-06-22T05:35:15.554Z,2.27
2018-06-22T05:37:44.492Z,1.63
2018-06-22T05:40:15.967Z,2.30
2018-06-22T05:42:45.328Z,1.70
2018-06-22T05:45:17.575Z,1.67
2018-06-22T05:47:47.433Z,2.17
2018-06-22T05:50:16.522Z,1.60
2018-06-22T05:52:45.485Z,1.50
2018-06-22T05:55:14.484Z,1.60
2018-06-22T05:57:43.443Z,1.60
2018-06-22T06:00:12.483Z,1.80
2018-06-22T06:02:41.450Z,1.30
2018-06-22T06:05:11.316Z,1.30
2018-06-22T06:07:40.270Z,1.20
2018-06-22T06:10:09.256Z,1.37
2018-06-22T06:12:38.364Z,1.07
2018-06-22T06:15:07.431Z,1.77
2018-06-22T06:17:36.955Z,1.80
2018-06-22T06:20:08.095Z,1.30
2018-06-22T06:22:37.044Z,1.27
2018-06-22T06:25:06.101Z,1.40
2018-06-22T06:27:37.209Z,1.43
2018-06-22T06:30:06.856Z,1.40
2018-06-22T06:32:35.860Z,1.27
2018-06-22T06:35:04.827Z,1.20
2018-06-22T06:37:33.880Z,1.27
2018-06-22T06:40:03.348Z,1.30
2018-06-22T06:42:32.383Z,1.43
2018-06-22T06:45:01.597Z,1.37
2018-06-22T06:47:33.819Z,1.40
2018-06-22T06:50:02.814Z,1.83
2018-06-22T06:52:31.836Z,1.10
2018-06-22T06:55:00.826Z,1.30
2018-06-22T06:57:29.808Z,1.37
2018-06-22T06:59:58.787Z,1.10
2018-06-22T07:02:27.830Z,1.40
2018-06-22T07:04:58.445Z,3.23
2018-06-22T07:07:27.517Z,1.20
2018-06-22T07:09:56.500Z,1.20
2018-06-22T07:12:25.473Z,1.70
2018-06-22T07:14:55.230Z,1.13
2018-06-22T07:17:24.680Z,1.37
2018-06-22T07:19:54.749Z,1.30
2018-06-22T07:22:25.186Z,1.30
2018-06-22T07:24:54.160Z,1.17
2018-06-22T07:27:23.156Z,1.10
2018-06-22T07:29:52.126Z,1.20
2018-06-22T07:32:21.128Z,1.30
2018-06-22T07:34:50.218Z,1.20
2018-06-22T07:37:19.248Z,1.40
2018-06-22T07:39:48.272Z,1.20
2018-06-22T07:42:17.316Z,0.90
2018-06-22T07:44:46.772Z,1.00
2018-06-22T07:47:15.785Z,0.93
2018-06-22T07:49:46.098Z,1.10
2018-06-22T07:52:15.212Z,1.10
2018-06-22T07:54:44.235Z,1.00
2018-06-22T07:57:15.250Z,0.90
2018-06-22T07:59:44.368Z,0.90
2018-06-22T08:02:13.970Z,0.90
2018-06-22T08:04:43.039Z,1.20
2018-06-22T08:07:12.076Z,1.10
2018-06-22T08:09:42.026Z,1.10
2018-06-22T08:12:11.571Z,1.10
2018-06-22T08:14:43.108Z,1.17
2018-06-22T08:17:12.194Z,1.27
2018-06-22T08:19:41.245Z,1.00
2018-06-22T08:22:10.996Z,1.10
2018-06-22T08:24:41.288Z,1.07
2018-06-22T08:27:10.361Z,1.10
2018-06-22T08:29:39.522Z,1.50
2018-06-22T08:32:08.612Z,1.33
2018-06-22T08:34:38.747Z,1.20
2018-06-22T08:37:09.481Z,1.40
2018-06-22T08:39:38.524Z,1.50
2018-06-22T08:42:08.280Z,1.47
2018-06-22T08:44:37.324Z,1.60
2018-06-22T08:47:07.317Z,1.60
2018-06-22T08:49:38.650Z,1.70
2018-06-22T08:52:07.717Z,1.37
2018-06-22T08:54:36.949Z,1.47
2018-06-22T08:57:06.064Z,1.50
2018-06-22T08:59:35.124Z,1.70
2018-06-22T09:02:03.863Z,1.63
2018-06-22T09:04:34.255Z,1.57
2018-06-22T09:07:03.341Z,1.67
2018-06-22T09:09:36.858Z,2.00
2018-06-22T09:12:08.757Z,3.70
2018-06-22T09:14:38.236Z,1.83
2018-06-22T09:17:07.453Z,1.70
2018-06-22T09:19:37.429Z,1.67
2018-06-22T09:22:06.558Z,1.40
2018-06-22T09:24:36.113Z,1.60
2018-06-22T09:27:05.198Z,1.70
2018-06-22T09:29:34.272Z,1.40
2018-06-22T09:32:03.304Z,2.10
2018-06-22T09:34:33.233Z,1.80
2018-06-22T09:37:02.268Z,1.60
2018-06-22T09:39:31.315Z,1.80
2018-06-22T09:42:00.353Z,1.80
2018-06-22T09:44:35.471Z,1.60
2018-06-22T09:47:04.798Z,1.30
2018-06-22T09:49:39.388Z,1.50
2018-06-22T09:52:11.604Z,1.50
2018-06-22T09:54:41.204Z,1.70
2018-06-22T09:57:10.251Z,1.50
2018-06-22T09:59:43.009Z,1.67
2018-06-22T10:02:12.144Z,1.50
2018-06-22T10:04:42.361Z,1.30
2018-06-22T10:07:12.156Z,1.20
2018-06-22T10:09:42.756Z,1.43
2018-06-22T10:12:11.800Z,1.77
2018-06-22T10:14:41.673Z,1.53
2018-06-22T10:17:10.709Z,1.70
2018-06-22T10:19:39.797Z,1.83
2018-06-22T10:22:09.672Z,1.30
2018-06-22T10:24:38.848Z,1.27
2018-06-22T10:27:07.973Z,1.27
2018-06-22T10:29:37.041Z,1.50
2018-06-22T10:32:06.985Z,1.40
2018-06-22T10:34:36.029Z,1.57
2018-06-22T10:37:05.106Z,1.60
2018-06-22T10:39:34.147Z,2.10
2018-06-22T10:42:03.193Z,1.60
2018-06-22T10:44:32.244Z,1.57
2018-06-22T10:47:03.302Z,3.57
2018-06-22T10:49:32.368Z,1.80
2018-06-22T10:52:01.415Z,1.73
2018-06-22T10:54:30.528Z,1.90
2018-06-22T10:57:00.232Z,2.07
2018-06-22T10:59:29.405Z,1.77
2018-06-22T11:01:58.875Z,1.93
2018-06-22T11:04:27.867Z,2.00
2018-06-22T11:06:59.996Z,2.13
2018-06-22T11:09:29.130Z,1.90
2018-06-22T11:11:58.804Z,1.73
2018-06-22T11:14:27.853Z,2.00
2018-06-22T11:16:56.866Z,2.40
2018-06-22T11:19:27.865Z,2.13
2018-06-22T11:21:57.354Z,2.43
2018-06-22T11:24:34.794Z,2.13
2018-06-22T11:27:03.827Z,2.13
2018-06-22T11:29:34.124Z,2.10
2018-06-22T11:32:04.736Z,2.77
2018-06-22T11:34:34.259Z,2.10
2018-06-22T11:37:03.392Z,2.37
2018-06-22T11:39:32.573Z,2.03
2018-06-22T11:42:02.664Z,2.00
2018-06-22T11:44:31.638Z,2.40
2018-06-22T11:47:01.955Z,2.60
2018-06-22T11:49:30.956Z,2.10
2018-06-22T11:52:01.289Z,1.83
2018-06-22T11:54:30.909Z,2.10
2018-06-22T11:56:59.901Z,1.63
2018-06-22T11:59:29.580Z,2.27
2018-06-22T12:01:58.548Z,1.60
2018-06-22T12:04:27.522Z,1.87
2018-06-22T12:06:57.176Z,2.33
2018-06-22T12:09:26.211Z,1.77
2018-06-22T12:11:55.171Z,1.77
2018-06-22T12:14:24.200Z,1.67
2018-06-22T12:16:53.177Z,1.70
2018-06-22T12:19:22.295Z,1.40
2018-06-22T12:21:51.927Z,1.83
2018-06-22T12:24:21.426Z,1.60
2018-06-22T12:26:51.692Z,1.90
2018-06-22T12:29:20.704Z,1.90
2018-06-22T12:31:49.716Z,1.70
2018-06-22T12:34:18.707Z,1.93
2018-06-22T12:36:48.422Z,1.70
2018-06-22T12:39:18.445Z,1.70
2018-06-22T12:41:47.436Z,2.33
2018-06-22T12:44:16.414Z,1.93
2018-06-22T12:46:45.435Z,1.80
2018-06-22T12:49:15.168Z,1.80
2018-06-22T12:51:44.825Z,2.13
2018-06-22T12:54:15.297Z,1.93
2018-06-22T12:56:47.073Z,1.13
2018-06-22T12:59:16.371Z,1.40
2018-06-22T13:01:45.583Z,1.60
2018-06-22T13:04:14.623Z,1.50
2018-06-22T13:06:45.459Z,1.73
2018-06-22T13:09:14.128Z,1.80
2018-06-22T13:11:42.722Z,1.73
2018-06-22T13:14:12.251Z,1.93
2018-06-22T13:16:41.615Z,1.70
2018-06-22T13:19:10.498Z,1.70
2018-06-22T13:21:55.747Z,1.70
2018-06-22T13:24:25.928Z,1.70
2018-06-22T13:26:55.178Z,1.70
2018-06-22T13:29:25.524Z,1.73
2018-06-22T13:31:55.434Z,1.93
2018-06-22T13:34:24.405Z,1.63
2018-06-22T13:36:53.520Z,1.80
2018-06-22T13:39:22.516Z,1.80
2018-06-22T13:41:51.518Z,2.07
2018-06-22T13:44:21.197Z,1.50
2018-06-22T13:46:50.341Z,2.07
2018-06-22T13:49:19.322Z,2.07
2018-06-22T13:51:49.536Z,2.00
2018-06-22T13:54:19.258Z,1.90
2018-06-22T13:56:48.307Z,2.13
2018-06-22T13:59:19.659Z,1.73
2018-06-22T14:01:50.201Z,2.20
2018-06-22T14:04:24.950Z,1.90
2018-06-22T14:06:56.396Z,1.97
2018-06-22T14:09:26.269Z,1.50
2018-06-22T14:11:55.245Z,2.20
2018-06-22T14:14:25.136Z,2.20
2018-06-22T14:16:54.152Z,2.27
2018-06-22T14:19:23.198Z,2.70
2018-06-22T14:21:52.250Z,2.40
2018-06-22T14:24:21.259Z,2.17
2018-06-22T14:26:50.232Z,2.30
2018-06-22T14:29:19.488Z,2.30
2018-06-22T14:31:48.458Z,2.30
2018-06-22T14:34:17.454Z,2.30
2018-06-22T14:36:46.473Z,2.37
2018-06-22T14:39:15.638Z,2.10
2018-06-22T14:41:45.439Z,2.40
2018-06-22T14:44:14.424Z,2.53
2018-06-22T14:46:43.418Z,2.87
2018-06-22T14:49:13.048Z,2.40
2018-06-22T14:51:43.135Z,2.30
2018-06-22T14:54:18.399Z,2.60
2018-06-22T14:56:52.785Z,2.63
2018-06-22T14:59:29.088Z,3.00
2018-06-22T15:02:03.714Z,2.73
2018-06-22T15:04:38.330Z,2.93
2018-06-22T15:07:14.179Z,2.07
2018-06-22T15:09:48.245Z,2.23
2018-06-22T15:12:20.560Z,2.40
2018-06-22T15:14:49.542Z,2.10
2018-06-22T15:17:18.580Z,2.07
2018-06-22T15:19:48.396Z,2.20
2018-06-22T15:22:18.029Z,1.80
2018-06-22T15:24:50.264Z,1.90
2018-06-22T15:27:20.307Z,1.47
2018-06-22T15:29:58.554Z,1.87
2018-06-22T15:32:27.742Z,1.90
2018-06-22T15:35:02.209Z,2.17
2018-06-22T15:37:36.993Z,1.90
2018-06-22T15:40:14.381Z,1.90
2018-06-22T15:42:48.883Z,1.63
2018-06-22T15:45:27.147Z,2.17
2018-06-22T15:48:02.574Z,2.90
2018-06-22T15:51:46.190Z,2.40
2018-06-22T15:54:20.972Z,2.40
2018-06-22T15:56:52.199Z,2.03
2018-06-22T15:59:21.800Z,2.70
2018-06-22T16:01:53.328Z,2.70
2018-06-22T16:04:22.012Z,2.60
2018-06-22T16:06:52.075Z,2.53
2018-06-22T16:09:21.477Z,2.70
2018-06-22T16:12:00.921Z,2.50
2018-06-22T16:14:35.847Z,2.40
2018-06-22T16:17:10.126Z,2.80
2018-06-22T16:19:45.332Z,2.50
2018-06-22T16:22:20.559Z,2.80
2018-06-22T16:24:54.924Z,2.43
2018-06-22T16:27:23.976Z,2.80
2018-06-22T16:29:53.817Z,2.80
2018-06-22T16:32:24.054Z,3.50
2018-06-22T16:34:53.204Z,2.50
2018-06-22T16:37:22.213Z,2.53
2018-06-22T16:39:51.588Z,2.80
2018-06-22T16:42:36.365Z,2.10
2018-06-22T16:45:06.029Z,2.00
2018-06-22T16:47:35.027Z,2.50
2018-06-22T16:50:05.344Z,2.30
2018-06-22T16:52:38.652Z,3.00
2018-06-22T16:55:08.927Z,2.80
2018-06-22T16:57:39.246Z,2.50
2018-06-22T17:00:09.154Z,3.07
2018-06-22T17:02:38.295Z,3.23
2018-06-22T17:05:07.907Z,2.67
2018-06-22T17:07:42.766Z,2.53
2018-06-22T17:10:17.068Z,2.10
2018-06-22T17:12:51.308Z,4.50
2018-06-22T17:15:27.586Z,4.63
2018-06-22T17:18:01.972Z,2.63
2018-06-22T17:20:30.974Z,2.67
2018-06-22T17:23:00.000Z,2.30
2018-06-22T17:25:29.577Z,2.40
2018-06-22T17:27:59.580Z,2.70
2018-06-22T17:30:28.681Z,2.63
2018-06-22T17:32:57.640Z,2.77
2018-06-22T17:35:27.381Z,2.70
2018-06-22T17:37:58.937Z,2.07
2018-06-22T17:40:28.302Z,2.90
2018-06-22T17:42:57.922Z,2.30
2018-06-22T17:45:28.213Z,2.63
2018-06-22T17:47:58.137Z,2.90
2018-06-22T17:50:29.004Z,2.47
2018-06-22T17:53:05.348Z,2.90
2018-06-22T17:55:37.499Z,2.50
2018-06-22T17:58:06.699Z,2.70
2018-06-22T18:00:41.170Z,2.60
2018-06-22T18:03:15.630Z,2.97
2018-06-22T18:05:49.989Z,3.10
2018-06-22T18:08:24.347Z,2.57
2018-06-22T18:11:00.661Z,2.23
2018-06-22T18:13:34.724Z,2.33
2018-06-22T18:16:05.596Z,2.20
2018-06-22T18:18:35.591Z,2.30
2018-06-22T18:21:04.596Z,2.53
2018-06-22T18:23:33.664Z,2.50
2018-06-22T18:26:03.332Z,2.67
2018-06-22T18:28:33.579Z,2.30
2018-06-22T18:31:02.568Z,3.10
2018-06-22T18:33:32.034Z,2.70
2018-06-22T18:36:01.012Z,2.80
2018-06-22T18:38:30.738Z,2.10
2018-06-22T18:40:59.739Z,2.53
2018-06-22T18:43:34.322Z,2.40
2018-06-22T18:46:03.307Z,2.40
2018-06-22T18:48:32.855Z,3.03
2018-06-22T18:51:03.584Z,2.90
2018-06-22T18:53:37.995Z,2.30
2018-06-22T18:56:12.286Z,2.40
2018-06-22T18:58:47.179Z,2.50
2018-06-22T19:01:22.315Z,2.73
2018-06-22T19:03:51.510Z,3.17
2018-06-22T19:06:20.484Z,2.73
2018-06-22T19:08:50.208Z,3.47
2018-06-22T19:11:19.277Z,2.67
2018-06-22T19:13:48.264Z,3.00
2018-06-22T19:16:17.896Z,2.30
2018-06-22T19:18:47.041Z,2.80
2018-06-22T19:21:15.990Z,2.47
2018-06-22T19:23:45.048Z,2.67
2018-06-22T19:26:16.568Z,2.47
2018-06-22T19:28:46.010Z,2.70
2018-06-22T19:31:15.216Z,2.90
2018-06-22T19:33:46.215Z,2.70
2018-06-22T19:36:15.263Z,2.90
2018-06-22T19:38:44.260Z,3.03
2018-06-22T19:41:13.265Z,2.80
2018-06-22T19:43:47.648Z,2.73
2018-06-22T19:46:22.249Z,2.67
2018-06-22T19:48:56.567Z,2.53
2018-06-22T19:51:31.109Z,2.90
2018-06-22T19:54:07.688Z,2.93
2018-06-22T19:56:36.926Z,2.43
2018-06-22T19:59:07.216Z,2.70
2018-06-22T20:01:37.753Z,2.77
2018-06-22T20:04:08.120Z,3.10
2018-06-22T20:06:38.179Z,3.10
2018-06-22T20:09:09.190Z,2.80
2018-06-22T20:11:39.162Z,3.00
2018-06-22T20:14:09.812Z,3.60
2018-06-22T20:16:40.117Z,3.07
2018-06-22T20:19:09.206Z,2.80
2018-06-22T20:21:38.288Z,3.13
2018-06-22T20:24:07.305Z,3.37
2018-06-22T20:26:36.324Z,3.50
2018-06-22T20:29:05.882Z,2.53
2018-06-22T20:31:41.404Z,3.10
2018-06-22T20:34:17.244Z,2.63
2018-06-22T20:36:51.599Z,2.60
2018-06-22T20:40:28.852Z,2.80
2018-06-22T20:42:59.881Z,2.17
2018-06-22T20:45:34.230Z,3.10
2018-06-22T20:49:09.325Z,2.47
2018-06-22T20:51:43.049Z,2.97
2018-06-22T20:54:12.726Z,3.63
2018-06-22T20:56:41.924Z,2.57
2018-06-22T20:59:11.858Z,2.60
2018-06-22T21:01:40.864Z,2.97
2018-06-22T21:04:10.286Z,2.47
2018-06-22T21:06:39.310Z,2.73
2018-06-22T21:09:09.691Z,2.80
2018-06-22T21:11:39.591Z,2.20
2018-06-22T21:14:08.577Z,2.90
2018-06-22T21:16:37.696Z,2.97
2018-06-22T21:19:07.905Z,2.70
2018-06-22T21:21:42.083Z,2.90
2018-06-22T21:24:11.144Z,3.17
2018-06-22T21:26:41.143Z,3.23
2018-06-22T21:29:16.101Z,2.43
2018-06-22T21:31:52.400Z,2.80
2018-06-22T21:34:26.893Z,3.13
2018-06-22T21:37:02.180Z,2.87
2018-06-22T21:39:32.398Z,2.77
2018-06-22T21:42:01.935Z,2.93
2018-06-22T21:44:31.019Z,3.40
2018-06-22T21:47:00.061Z,3.23
2018-06-22T21:49:29.037Z,2.70
2018-06-22T21:51:58.819Z,3.93
2018-06-22T21:54:27.892Z,2.30
2018-06-22T21:56:56.919Z,2.70
2018-06-22T21:59:25.904Z,2.70
2018-06-22T22:01:55.046Z,2.90
2018-06-22T22:04:24.060Z,3.03
2018-06-22T22:06:53.160Z,3.30
2018-06-22T22:09:23.368Z,2.47
2018-06-22T22:11:53.428Z,2.60
2018-06-22T22:14:24.249Z,2.77
2018-06-22T22:16:54.584Z,3.53
2018-06-22T22:19:29.212Z,2.50
2018-06-22T22:21:58.237Z,2.77
2018-06-22T22:24:27.578Z,3.50
2018-06-22T22:26:56.593Z,2.90
2018-06-22T22:29:25.577Z,3.27
2018-06-22T22:31:55.847Z,3.00
2018-06-22T22:34:24.861Z,3.37
2018-06-22T22:36:53.876Z,2.97
2018-06-22T22:39:23.737Z,2.60
2018-06-22T22:41:52.773Z,3.00
2018-06-22T22:44:21.774Z,3.00
2018-06-22T22:46:51.076Z,2.87
2018-06-22T22:49:21.907Z,3.40
2018-06-22T22:51:52.026Z,3.23
2018-06-22T22:54:22.019Z,2.57
2018-06-22T22:56:51.640Z,2.80
2018-06-22T22:59:20.635Z,3.90
2018-06-22T23:01:49.647Z,4.23
2018-06-22T23:04:18.992Z,2.60
2018-06-22T23:06:48.069Z,3.03
2018-06-22T23:09:17.449Z,3.00
2018-06-22T23:11:46.499Z,3.00
2018-06-22T23:14:16.888Z,3.30
2018-06-22T23:16:46.304Z,3.20
2018-06-22T23:19:15.310Z,3.40
2018-06-22T23:21:44.312Z,3.80
2018-06-22T23:24:13.808Z,2.80
2018-06-22T23:26:43.272Z,2.90
2018-06-22T23:29:12.722Z,3.67
2018-06-22T23:31:43.258Z,4.10
2018-06-22T23:34:13.071Z,3.60
2018-06-22T23:36:43.060Z,2.93
2018-06-22T23:39:12.086Z,4.70
2018-06-22T23:41:41.111Z,3.00
2018-06-22T23:44:10.111Z,3.20
2018-06-22T23:46:40.687Z,3.43
2018-06-22T23:49:09.698Z,3.87
2018-06-22T23:51:39.167Z,3.73
2018-06-22T23:54:08.861Z,3.60
2018-06-22T23:56:38.520Z,3.63
2018-06-22T23:59:07.707Z,3.37
